Data for 04/18/2005

Time Sea-Level Adjusted Pressure Absolute Pressure Temperature Relative Humidity Dew Point   
(mb) (inHg) (mb) (inHg) (C) (F) (%) (C) (F)
00:05 1014 29.94 843 24.89 4 39.3 90 2.6 36.7
00:10 1014 29.94 843 24.89 3.8 38.8 91 2.4 36.4
00:15 1013 29.91 843 24.89 3.5 38.3 92 2.3 36.2
00:20 1013 29.91 843 24.89 3.4 38.1 92 2.2 36
00:25 1013 29.91 842 24.86 3.4 38.2 93 2.5 36.4
00:30 1013 29.91 843 24.89 3.5 38.3 92 2.3 36.2
00:35 1013 29.91 843 24.89 3.5 38.3 92 2.4 36.3
00:40 1013 29.91 842 24.86 3.5 38.3 92 2.3 36.1
00:45 1013 29.91 842 24.86 3.5 38.2 92 2.3 36.2
00:50 1013 29.91 843 24.89 3.4 38.1 93 2.3 36.1
00:55 1013 29.91 843 24.89 3.1 37.7 94 2.3 36.1
01:00 1013 29.91 843 24.89 3.1 37.5 94 2.2 36
01:05 1014 29.94 843 24.89 3 37.3 94 2.1 35.8
01:10 1014 29.94 843 24.89 2.7 36.8 95 1.9 35.5
01:15 1013 29.91 843 24.89 2.6 36.6 94 1.8 35.2
01:20 1013 29.91 843 24.89 2.5 36.4 94 1.6 34.8
01:25 1013 29.91 843 24.89 2.1 35.9 94 1.3 34.3
01:30 1014 29.94 843 24.89 1.9 35.3 95 1.2 34.1
01:35 1014 29.94 843 24.89 1.7 35.1 96 1.1 34
01:40 1014 29.94 843 24.89 1.3 34.3 97 0.8 33.4
01:45 1014 29.94 843 24.89 0.9 33.6 98 0.6 33
01:50 1014 29.94 843 24.89 0.8 33.4 98 0.5 32.8
01:55 1014 29.94 843 24.89 0.6 33.2 99 0.4 32.8
02:00 1014 29.94 843 24.89 0.5 33 99 0.4 32.7
02:05 1014 29.94 843 24.89 0.6 33 99 0.5 32.8
02:10 1013 29.91 843 24.89 0.8 33.4 99 0.6 33
02:15 1013 29.91 843 24.89 0.7 33.2 99 0.5 32.9
02:20 1013 29.91 843 24.89 0.8 33.4 98 0.6 33
02:25 1013 29.91 842 24.86 0.8 33.4 98 0.5 33
02:30 1013 29.91 842 24.86 0.6 33.1 99 0.4 32.7
02:35 1013 29.91 842 24.86 0.4 32.7 99 0.3 32.5
02:40 1013 29.91 842 24.86 0.4 32.7 99 0.3 32.6
02:45 1013 29.91 843 24.89 0.4 32.7 100 0.3 32.6
02:50 1013 29.91 842 24.86 0.4 32.7 100 0.4 32.7
02:55 1013 29.91 843 24.89 0.5 32.9 100 0.5 32.8
03:00 1013 29.91 843 24.89 0.6 33 99 0.5 32.8
03:05 1013 29.91 843 24.89 0.6 33.1 99 0.5 32.9
03:10 1014 29.94 843 24.89 0.6 33.1 99 0.5 32.9
03:15 1014 29.94 843 24.89 0.6 33 99 0.4 32.8
03:20 1014 29.94 843 24.89 0.5 33 99 0.4 32.7
03:25 1013 29.91 842 24.86 0.6 33.1 99 0.5 32.9
03:30 1013 29.91 843 24.89 0.7 33.3 99 0.6 33
03:35 1013 29.91 843 24.89 0.7 33.3 99 0.5 33
03:40 1013 29.91 843 24.89 0.7 33.3 99 0.6 33
03:45 1014 29.94 843 24.89 0.7 33.2 99 0.5 32.9
03:50 1014 29.94 843 24.89 0.5 32.9 99 0.4 32.6
03:55 1013 29.91 843 24.89 0.5 32.9 99 0.4 32.6
04:00 1013 29.91 842 24.86 0.5 32.9 99 0.4 32.7
04:05 1013 29.91 842 24.86 0.5 32.9 99 0.4 32.6
04:10 1013 29.91 842 24.86 0.4 32.7 99 0.3 32.5
04:15 1013 29.91 843 24.89 0.5 32.8 99 0.4 32.7
04:20 1013 29.91 842 24.86 0.5 32.9 100 0.4 32.8
04:25 1013 29.91 842 24.86 0.7 33.2 99 0.6 33
04:30 1014 29.94 843 24.89 0.7 33.2 99 0.5 32.9
04:35 1014 29.94 843 24.89 0.6 33.2 99 0.5 32.8
04:40 1014 29.94 843 24.89 0.6 33.1 99 0.4 32.7
04:45 1014 29.94 843 24.89 0.6 33 99 0.4 32.7
04:50 1014 29.94 843 24.89 0.6 33 99 0.4 32.7
04:55 1014 29.94 843 24.89 0.6 33 99 0.4 32.6
05:00 1014 29.94 843 24.89 0.6 33.1 99 0.4 32.7
05:05 1014 29.94 843 24.89 0.6 33 99 0.4 32.7
05:10 1014 29.94 843 24.89 0.6 33 99 0.4 32.6
05:15 1013 29.91 843 24.89 0.6 33.1 98 0.4 32.7
05:20 1013 29.91 843 24.89 0.6 33.1 98 0.4 32.7
05:25 1014 29.94 843 24.89 0.5 33 98 0.3 32.6
05:30 1014 29.94 843 24.89 0.5 32.9 99 0.3 32.6
05:35 1014 29.94 843 24.89 0.6 33 99 0.4 32.7
05:40 1014 29.94 843 24.89 0.6 33.1 99 0.4 32.8
05:45 1014 29.94 843 24.89 0.7 33.2 99 0.5 32.9
05:50 1014 29.94 843 24.89 0.7 33.3 98 0.5 32.9
05:55 1014 29.94 843 24.89 0.7 33.3 98 0.4 32.8
06:00 1014 29.94 843 24.89 0.7 33.2 98 0.4 32.7
06:05 1014 29.94 843 24.89 0.7 33.2 98 0.4 32.7
06:10 1014 29.94 844 24.92 0.6 33.1 98 0.4 32.6
06:15 1014 29.94 843 24.89 0.6 33 98 0.3 32.6
06:20 1014 29.94 843 24.89 0.5 32.9 99 0.3 32.6
06:25 1014 29.94 843 24.89 0.6 33.1 99 0.4 32.7
06:30 1014 29.94 843 24.89 0.5 32.8 99 0.3 32.5
06:35 1014 29.94 843 24.89 0.4 32.7 99 0.3 32.5
06:40 1014 29.94 843 24.89 0.4 32.7 99 0.2 32.4
06:45 1014 29.94 843 24.89 0.4 32.6 99 0.2 32.4
06:50 1014 29.94 843 24.89 0.3 32.5 99 0.2 32.4
06:55 1014 29.94 844 24.92 0.3 32.5 100 0.2 32.4
07:00 1014 29.94 843 24.89 0.3 32.5 100 0.2 32.4
07:05 1014 29.94 843 24.89 0.3 32.6 100 0.2 32.4
07:10 1014 29.94 843 24.89 0.3 32.6 99 0.3 32.5
07:15 1014 29.94 843 24.89 0.3 32.5 100 0.2 32.4
07:20 1014 29.94 843 24.89 0.3 32.5 100 0.2 32.4
07:25 1014 29.94 843 24.89 0.3 32.6 100 0.3 32.5
07:30 1014 29.94 843 24.89 0.3 32.5 100 0.2 32.4
07:35 1014 29.94 843 24.89 0.3 32.6 100 0.3 32.5
07:40 1014 29.94 843 24.89 0.3 32.6 100 0.3 32.5
07:45 1014 29.94 843 24.89 0.3 32.6 100 0.3 32.5
07:50 1014 29.94 843 24.89 0.3 32.6 100 0.3 32.5
07:55 1014 29.94 843 24.89 0.3 32.6 100 0.3 32.5
08:00 1014 29.94 843 24.89 0.4 32.7 100 0.3 32.5
08:05 1014 29.94 843 24.89 0.4 32.7 99 0.3 32.5
08:10 1014 29.94 844 24.92 0.4 32.7 99 0.3 32.6
08:15 1014 29.94 844 24.92 0.5 33 99 0.4 32.7
08:20 1014 29.94 843 24.89 0.6 33.1 98 0.4 32.7
08:25 1014 29.94 844 24.92 0.6 33.1 98 0.4 32.7
08:30 1014 29.94 844 24.92 0.7 33.2 98 0.4 32.7
08:35 1014 29.94 843 24.89 0.7 33.2 97 0.3 32.6
08:40 1014 29.94 843 24.89 0.7 33.3 97 0.3 32.6
08:45 1014 29.94 843 24.89 0.6 33.1 97 0.2 32.4
08:50 1014 29.94 843 24.89 0.6 33.1 98 0.3 32.5
08:55 1014 29.94 844 24.92 0.6 33.1 98 0.3 32.5
09:00 1014 29.94 844 24.92 0.6 33.1 98 0.3 32.6
09:05 1014 29.94 844 24.92 0.7 33.3 97 0.3 32.6
09:10 1014 29.94 844 24.92 0.7 33.3 97 0.3 32.5
09:15 1014 29.94 844 24.92 0.8 33.4 96 0.2 32.4
09:20 1014 29.94 844 24.92 0.7 33.3 96 0.2 32.3
09:25 1014 29.94 843 24.89 0.7 33.3 96 0.2 32.3
09:30 1014 29.94 844 24.92 0.8 33.4 96 0.2 32.3
09:35 1014 29.94 844 24.92 0.9 33.6 96 0.2 32.4
09:40 1014 29.94 843 24.89 0.9 33.6 94 0.1 32.1
09:45 1014 29.94 843 24.89 0.8 33.4 95 0.1 32.1
09:50 1014 29.94 843 24.89 0.7 33.2 96 0 32.1
09:55 1014 29.94 844 24.92 0.6 33.1 96 0.1 32.1
10:00 1014 29.94 844 24.92 0.7 33.3 96 0.1 32.2
10:05 1014 29.94 844 24.92 0.8 33.4 95 0.1 32.2
10:10 1014 29.94 844 24.92 0.7 33.3 95 0 32.1
10:15 1014 29.94 844 24.92 0.8 33.4 95 -0 32
10:20 1015 29.97 844 24.92 0.7 33.2 95 -0 32
10:25 1015 29.97 844 24.92 0.7 33.3 95 -0.1 31.9
10:30 1015 29.97 844 24.92 0.8 33.4 94 -0 32
10:35 1015 29.97 844 24.92 1 33.8 94 0.1 32.1
10:40 1015 29.97 844 24.92 1.1 34 93 0.1 32.2
10:45 1015 29.97 844 24.92 1 33.9 93 0.1 32.2
10:50 1015 29.97 844 24.92 1.1 34 93 0.1 32.1
10:55 1015 29.97 844 24.92 1.2 34.1 93 0.2 32.3
11:00 1015 29.97 844 24.92 1.2 34.1 93 0.1 32.2
11:05 1015 29.97 844 24.92 1.2 34.1 93 0.2 32.3
11:10 1015 29.97 844 24.92 1.1 33.9 94 0.1 32.3
11:15 1015 29.97 844 24.92 1.2 34.2 92 0.1 32.1
11:20 1015 29.97 844 24.92 1.4 34.6 91 0.1 32.2
11:25 1015 29.97 844 24.92 1.5 34.6 92 0.2 32.4
11:30 1015 29.97 844 24.92 1.5 34.6 91 0.2 32.4
11:35 1015 29.97 844 24.92 1.4 34.6 92 0.2 32.4
11:40 1015 29.97 844 24.92 1.4 34.5 90 -0 32
11:45 1015 29.97 844 24.92 1.4 34.6 91 0.1 32.3
11:50 1015 29.97 844 24.92 1.5 34.6 91 0.1 32.2
11:55 1015 29.97 844 24.92 1.6 34.9 90 0.1 32.3
12:00 1015 29.97 844 24.92 1.2 34.2 92 0.1 32.2
12:05 1015 29.97 844 24.92 1.4 34.6 92 0.2 32.4
12:10 1015 29.97 844 24.92 1.9 35.4 89 0.3 32.5
12:15 1015 29.97 844 24.92 2.1 35.8 88 0.3 32.6
12:20 1015 29.97 844 24.92 2.4 36.3 86 0.3 32.5
12:25 1015 29.97 844 24.92 2.3 36.1 89 0.6 33.1
12:30 1015 29.97 844 24.92 2.1 35.9 88 0.4 32.7
12:35 1015 29.97 844 24.92 2 35.6 90 0.5 32.9
12:40 1015 29.97 844 24.92 2 35.7 90 0.6 33
12:45 1015 29.97 844 24.92 1.8 35.2 90 0.3 32.6
12:50 1015 29.97 844 24.92 1.9 35.4 90 0.5 32.8
12:55 1015 29.97 844 24.92 2 35.6 89 0.3 32.6
13:00 1015 29.97 844 24.92 1.8 35.3 89 0.3 32.5
13:05 1015 29.97 844 24.92 2.1 35.7 89 0.4 32.7
13:10 1015 29.97 844 24.92 2.2 36 89 0.6 33
13:15 1015 29.97 844 24.92 2.4 36.3 88 0.6 33.1
13:20 1015 29.97 844 24.92 2.5 36.5 88 0.7 33.2
13:25 1015 29.97 844 24.92 2.4 36.3 88 0.6 33
13:30 1015 29.97 844 24.92 2.4 36.3 88 0.6 33.1
13:35 1015 29.97 844 24.92 2.2 36 88 0.5 32.9
13:40 1015 29.97 844 24.92 2.3 36.1 88 0.5 32.8
13:45 1015 29.97 844 24.92 2.4 36.3 87 0.4 32.7
13:50 1015 29.97 844 24.92 2.3 36.2 88 0.5 33
13:55 1015 29.97 844 24.92 2.5 36.5 86 0.4 32.7
14:00 1015 29.97 844 24.92 2.5 36.6 88 0.7 33.3
14:05 1015 29.97 844 24.92 2.6 36.6 88 0.7 33.3
14:10 1015 29.97 844 24.92 2.4 36.4 87 0.5 32.9
14:15 1015 29.97 844 24.92 2.4 36.2 88 0.6 33.1
14:20 1015 29.97 844 24.92 2.3 36.1 90 0.8 33.4
14:25 1015 29.97 844 24.92 2.6 36.7 87 0.6 33.2
14:30 1015 29.97 844 24.92 2.9 37.1 86 0.7 33.3
14:35 1015 29.97 844 24.92 2.7 36.8 87 0.8 33.5
14:40 1015 29.97 844 24.92 2.5 36.6 89 0.8 33.5
14:45 1015 29.97 844 24.92 2.9 37.3 86 0.8 33.4
14:50 1015 29.97 844 24.92 3.2 37.8 85 0.9 33.6
14:55 1015 29.97 844 24.92 3.3 38 84 1 33.7
15:00 1015 29.97 844 24.92 3.1 37.6 87 1.1 33.9
15:05 1015 29.97 844 24.92 3 37.5 87 1.1 33.9
15:10 1015 29.97 844 24.92 3.1 37.5 86 0.9 33.7
15:15 1015 29.97 844 24.92 3.2 37.7 85 0.8 33.5
15:20 1015 29.97 844 24.92 3.1 37.6 85 0.9 33.5
15:25 1015 29.97 844 24.92 3 37.5 85 0.7 33.3
15:30 1015 29.97 844 24.92 3 37.5 86 0.9 33.6
15:35 1015 29.97 844 24.92 2.9 37.3 87 0.9 33.6
15:40 1015 29.97 844 24.92 2.8 37.1 87 0.8 33.5
15:45 1015 29.97 844 24.92 3 37.4 86 0.8 33.4
15:50 1015 29.97 844 24.92 2.9 37.2 87 1 33.8
15:55 1015 29.97 844 24.92 3.2 37.7 87 1.2 34.1
16:00 1015 29.97 844 24.92 3.3 38 83 0.8 33.4
16:05 1015 29.97 844 24.92 3.4 38.2 84 1.1 33.9
16:10 1015 29.97 844 24.92 2.9 37.1 87 0.8 33.5
16:15 1015 29.97 844 24.92 2.6 36.7 88 0.9 33.6
16:20 1015 29.97 844 24.92 2.7 36.9 89 1 33.8
16:25 1015 29.97 844 24.92 3.1 37.6 87 1.1 34
16:30 1015 29.97 844 24.92 3.2 37.7 86 1.1 34
16:35 1015 29.97 844 24.92 2.7 36.9 88 0.9 33.7
16:40 1015 29.97 845 24.95 2.3 36.1 89 0.6 33.1
16:45 1015 29.97 845 24.95 2.3 36.1 88 0.5 32.9
16:50 1015 29.97 845 24.95 2.2 35.9 89 0.6 33.1
16:55 1015 29.97 845 24.95 2.1 35.9 89 0.5 33
17:00 1015 29.97 844 24.92 2.5 36.6 88 0.7 33.3
17:05 1015 29.97 845 24.95 2.7 36.9 88 0.9 33.6
17:10 1015 29.97 845 24.95 2.6 36.7 87 0.6 33.1
17:15 1015 29.97 845 24.95 2.3 36.1 90 0.8 33.4
17:20 1015 29.97 845 24.95 1.7 35.1 92 0.6 33
17:25 1015 29.97 844 24.92 1.7 35.1 92 0.6 33
17:30 1015 29.97 844 24.92 1.7 35.1 92 0.5 32.9
17:35 1015 29.97 845 24.95 1.7 35 93 0.6 33
17:40 1015 29.97 845 24.95 1.9 35.3 91 0.6 33.1
17:45 1016 30 845 24.95 1.7 35 93 0.6 33.1
17:50 1015 29.97 845 24.95 1.7 35 92 0.4 32.8
17:55 1015 29.97 845 24.95 1.6 34.9 92 0.5 32.9
18:00 1015 29.97 845 24.95 1.9 35.4 92 0.7 33.3
18:05 1015 29.97 845 24.95 2.1 35.9 90 0.7 33.2
18:10 1016 30 845 24.95 2 35.7 91 0.7 33.3
18:15 1016 30 845 24.95 1.6 34.9 93 0.5 33
18:20 1015 29.97 845 24.95 1.5 34.8 94 0.6 33.1
18:25 1016 30 845 24.95 1.6 34.9 93 0.5 33
18:30 1016 30 845 24.95 1.6 34.9 93 0.6 33.1
18:35 1016 30 845 24.95 1.2 34.2 95 0.4 32.8
18:40 1016 30 845 24.95 1.1 33.9 96 0.5 32.8
18:45 1016 30 845 24.95 1 33.8 96 0.4 32.8
18:50 1016 30 845 24.95 1 33.8 96 0.5 32.8
18:55 1016 30 845 24.95 1.1 34 96 0.6 33
19:00 1016 30 845 24.95 1.3 34.4 95 0.6 33.1
19:05 1016 30 845 24.95 1.2 34.1 96 0.6 33
19:10 1016 30 845 24.95 0.9 33.7 96 0.4 32.7
19:15 1016 30 845 24.95 0.7 33.3 98 0.4 32.8
19:20 1016 30 845 24.95 0.8 33.4 97 0.4 32.7
19:25 1016 30 845 24.95 0.7 33.3 97 0.3 32.6
19:30 1016 30 845 24.95 0.8 33.5 98 0.5 32.8
19:35 1016 30 845 24.95 0.7 33.3 98 0.5 32.8
19:40 1016 30 845 24.95 0.9 33.7 98 0.6 33
19:45 1016 30 845 24.95 1 33.8 97 0.6 33
19:50 1016 30 845 24.95 0.9 33.7 97 0.5 32.9
19:55 1016 30 845 24.95 0.9 33.6 98 0.5 32.9
20:00 1016 30 845 24.95 0.9 33.7 98 0.6 33.1
20:05 1016 30 845 24.95 1 33.7 97 0.5 32.9
20:10 1016 30 846 24.98 0.8 33.4 98 0.4 32.8
20:15 1016 30 845 24.95 0.7 33.3 98 0.4 32.8
20:20 1016 30 845 24.95 0.8 33.4 98 0.5 32.9
20:25 1016 30 845 24.95 0.9 33.6 98 0.5 33
20:30 1016 30 845 24.95 0.9 33.6 97 0.5 32.9
20:35 1016 30 845 24.95 1 33.8 96 0.5 32.9
20:40 1016 30 845 24.95 0.9 33.6 97 0.5 32.9
20:45 1016 30 845 24.95 0.8 33.5 97 0.4 32.7
20:50 1016 30 845 24.95 0.7 33.3 97 0.4 32.6
20:55 1016 30 845 24.95 0.7 33.3 98 0.4 32.7
21:00 1016 30 845 24.95 0.8 33.4 98 0.5 32.9
21:05 1016 30 845 24.95 0.9 33.5 97 0.4 32.8
21:10 1016 30 845 24.95 0.9 33.6 97 0.4 32.8
21:15 1016 30 845 24.95 0.8 33.4 97 0.4 32.6
21:20 1016 30 845 24.95 0.8 33.4 97 0.4 32.7
21:25 1016 30 845 24.95 0.6 33.1 98 0.2 32.4
21:30 1016 30 845 24.95 0.5 32.9 98 0.3 32.5
21:35 1016 30 846 24.98 0.3 32.6 99 0.2 32.4
21:40 1016 30 846 24.98 0.2 32.4 99 0.1 32.2
21:45 1016 30 846 24.98 0.2 32.4 99 0.1 32.2
21:50 1016 30 846 24.98 0.1 32.2 100 0.1 32.1
21:55 1017 30.03 846 24.98 0 32.1 100 0 32.1
22:00 1017 30.03 846 24.98 0.1 32.2 100 0.1 32.1
22:05 1017 30.03 846 24.98 0.1 32.1 100 0 32
22:10 1017 30.03 846 24.98 0.1 32.1 99 -0 31.9
22:15 1017 30.03 846 24.98 0.2 32.3 99 0 32.1
22:20 1017 30.03 846 24.98 0.2 32.4 99 0.1 32.1
22:25 1017 30.03 846 24.98 0.3 32.6 99 0.1 32.3
22:30 1016 30 846 24.98 0.3 32.6 98 0.1 32.2
22:35 1017 30.03 846 24.98 0.4 32.7 98 0.2 32.3
22:40 1017 30.03 846 24.98 0.3 32.6 99 0.1 32.2
22:45 1016 30 846 24.98 0.2 32.4 99 0 32.1
22:50 1016 30 846 24.98 0.2 32.4 99 0 32.1
22:55 1016 30 846 24.98 0.2 32.4 99 0.1 32.2
23:00 1016 30 846 24.98 0.3 32.6 99 0.2 32.3
23:05 1016 30 846 24.98 0.3 32.5 99 0.2 32.3
23:10 1016 30 845 24.95 0.3 32.6 99 0.2 32.4
23:15 1016 30 846 24.98 0.3 32.5 99 0.2 32.3
23:20 1016 30 846 24.98 0.3 32.5 99 0.2 32.3
23:25 1016 30 845 24.95 0.3 32.5 100 0.2 32.4
23:30 1016 30 846 24.98 0.2 32.4 100 0.2 32.4
23:35 1016 30 846 24.98 0.3 32.5 100 0.2 32.4
23:40 1016 30 846 24.98 0.2 32.4 100 0.2 32.3
23:45 1016 30 846 24.98 0.1 32.2 100 0.1 32.2
23:50 1016 30 846 24.98 0.1 32.2 100 0.1 32.2
23:55 1016 30 846 24.98 0.1 32.2 100 0.1 32.2
24:00 1016 30 846 24.98 0.1 32.2 100 0.1 32.2